Date,TemperatureHighF,TemperatureAvgF,TemperatureLowF,DewpointHighF,DewpointAvgF,DewpointLowF,HumidityHigh,HumidityAvg,HumidityLow,PressureMaxIn,PressureMinIn,WindSpeedMaxMPH,WindSpeedAvgMPH,GustSpeedMaxMPH,PrecipitationSumIn
2013-2-1,53.7,1.7,53.5,36.0,-95.6,-99.9,52,2,47,30.18,30.06,0,-968,0,0.00
2013-2-2,58.5,4.7,54.2,42.0,-89.6,-99.9,62,4,57,30.22,30.11,0,-916,0,0.00
2013-2-3,47.4,3.5,46.5,33.0,-90.3,-99.9,58,4,50,30.17,30.02,0,-925,0,0.00
2013-2-4,61.7,5.3,51.5,41.0,-86.9,-99.9,62,5,44,30.05,29.95,6,-905,0,0.00
2013-2-5,46.9,3.3,40.2,36.0,-91.5,-99.9,86,4,60,30.10,29.90,0,-926,0,0.00
2013-2-6,44.3,8.2,38.9,33.0,-74.5,-99.9,77,12,49,30.13,29.96,4,-788,0,0.00
2013-2-7,39.4,1.6,37.4,36.0,-94.3,-99.9,92,4,86,30.07,29.81,5,-957,0,0.00
2013-2-8,37.7,5.0,30.6,28.0,-81.2,-99.9,87,11,45,29.97,29.75,7,-850,0,0.00
2013-2-9,46.5,19.6,33.1,27.0,-41.9,-99.9,53,22,33,30.08,29.81,11,-518,0,0.19
2013-2-10,45.4,7.9,39.3,25.0,-77.0,-99.9,49,8,37,30.08,29.88,10,-811,0,0.00
2013-2-11,47.7,25.6,37.9,27.0,-26.3,-99.9,55,26,37,30.22,29.97,10,-388,0,0.00
2013-2-12,50.3,29.4,37.8,33.0,-11.4,-99.9,71,40,42,30.33,30.22,5,-308,0,0.00
2013-2-13,45.1,15.9,39.1,34.0,-48.8,-99.9,76,27,61,30.31,30.12,2,-612,0,0.00
2013-2-14,58.3,14.5,50.5,39.0,-69.1,-99.9,50,8,29,30.18,30.09,10,-735,0,0.00
2013-2-15,63.3,27.9,52.6,38.0,-38.2,-99.9,52,17,24,30.23,30.14,6,-510,0,0.00
2013-2-16,63.6,56.4,49.4,37.0,32.4,23.0,59,42,28,30.22,29.97,6,1,0,0.00
2013-2-17,58.6,50.8,45.3,38.0,34.1,29.0,63,54,44,29.97,29.91,8,1,0,0.00
2013-2-18,53.5,43.9,36.1,38.0,31.1,-99.9,88,66,48,29.94,29.83,9,-18,0,0.00
2013-2-19,35.7,11.5,32.1,32.0,-55.4,-99.9,91,30,86,29.85,29.56,7,-658,0,0.00
2013-2-20,-200.0,0.0,200.0,-99.9,-99.9,-99.9,0,0,100,29.86,29.61,4,-988,0,0.00
2013-2-21,36.2,11.0,31.7,29.0,-58.6,-99.9,85,26,73,30.14,29.85,7,-676,0,0.45
2013-2-22,53.0,33.5,38.8,34.0,-6.9,-99.9,67,38,43,30.19,30.00,8,-283,0,0.00
2013-2-23,45.8,28.4,37.3,36.0,-8.5,-99.9,90,49,38,30.20,30.04,12,-299,0,0.00
2013-2-24,54.7,32.9,34.3,25.0,-6.7,-99.9,50,32,20,30.22,30.14,10,-208,0,0.00
2013-2-25,45.6,12.9,39.6,27.0,-62.4,-99.9,54,15,47,30.24,30.05,6,-701,0,0.00
2013-2-26,55.4,6.9,41.8,27.0,-82.3,-99.9,54,6,29,30.18,30.02,10,-842,0,0.00
2013-2-27,52.2,12.2,49.4,30.0,-68.4,-99.9,46,11,42,30.32,30.10,2,-754,0,0.00
2013-2-28,53.1,25.1,47.6,39.0,-35.3,-99.9,60,23,38,30.38,30.31,4,-499,0,0.00